Time;durP1;ratioP1;P1;durP2;ratioP2;P2;SDS_P1;SDS_P2;PMS_P1;PMS_P2;Temp;Humidity;BMP_temperature;BMP_pressure;BME280_temperature;BME280_humidity;BME280_pressure;Samples;Min_cycle;Max_cycle;Signal;HPM_P1;HPM_P2
2023/12/18 00:00:09;;;;;;;6.50;4.13;;;;;;;5.51;100.00;101007.63;6280126;22;20071;-84
2023/12/18 00:02:55;;;;;;;6.63;4.25;;;;;;;5.45;100.00;101007.31;6281518;22;20022;-84
2023/12/18 00:05:24;;;;;;;5.15;3.88;;;;;;;5.39;100.00;101022.38;6275516;22;20015;-83
2023/12/18 00:07:53;;;;;;;5.88;3.70;;;;;;;5.34;100.00;101027.25;6275024;22;20098;-84
2023/12/18 00:10:34;;;;;;;7.70;3.90;;;;;;;5.20;100.00;101011.13;6281428;22;20043;-88
2023/12/18 00:13:07;;;;;;;8.98;5.15;;;;;;;5.13;100.00;101024.41;6280188;22;20084;-84
2023/12/18 00:15:45;;;;;;;6.72;4.30;;;;;;;5.06;100.00;101017.13;6279087;22;20020;-87
2023/12/18 00:18:14;;;;;;;7.32;4.57;;;;;;;5.02;100.00;101017.78;6276549;22;20020;-85
2023/12/18 00:20:44;;;;;;;6.68;4.00;;;;;;;5.03;100.00;101009.28;6274374;22;20012;-84
2023/12/18 00:23:13;;;;;;;8.20;4.55;;;;;;;5.04;100.00;101017.06;6277950;22;20020;-86
2023/12/18 00:25:54;;;;;;;13.07;5.40;;;;;;;5.02;100.00;101012.66;6289343;22;20024;-87
2023/12/18 00:28:26;;;;;;;8.73;5.05;;;;;;;4.94;100.00;101014.78;6290911;22;20019;-88
2023/12/18 00:30:55;;;;;;;10.80;5.47;;;;;;;4.92;100.00;101018.06;6282270;22;20022;-86
2023/12/18 00:33:32;;;;;;;9.25;5.18;;;;;;;4.95;100.00;101008.00;6278736;22;20094;-85
2023/12/18 00:36:01;;;;;;;9.00;4.60;;;;;;;5.02;100.00;101012.66;6280979;22;20020;-87
2023/12/18 00:38:31;;;;;;;10.88;5.47;;;;;;;5.00;100.00;101004.00;6283162;22;20024;-86
2023/12/18 00:43:44;;;;;;;8.43;4.78;;;;;;;4.96;100.00;101045.66;6283389;22;20362;-87
2023/12/18 00:46:14;;;;;;;7.65;4.72;;;;;;;4.89;100.00;101048.66;6276823;22;20019;-88
2023/12/18 00:53:53;;;;;;;7.97;4.43;;;;;;;4.64;100.00;101060.06;6284966;22;20826;-86
2023/12/18 00:56:32;;;;;;;10.77;5.15;;;;;;;4.63;100.00;101050.63;6250537;23;20103;-85
2023/12/18 00:59:03;;;;;;;10.48;4.70;;;;;;;4.63;100.00;101063.44;6249975;23;20463;-84
2023/12/18 01:01:32;;;;;;;10.63;4.30;;;;;;;4.54;100.00;101070.59;6252336;23;20028;-85
2023/12/18 01:04:11;;;;;;;10.60;5.15;;;;;;;4.63;100.00;101050.63;6253062;23;20020;-87
2023/12/18 01:06:40;;;;;;;10.20;5.38;;;;;;;4.65;100.00;101043.00;6253026;23;20020;-85
2023/12/18 01:09:14;;;;;;;8.68;4.20;;;;;;;4.67;100.00;101034.59;6251485;23;20020;-89
2023/12/18 01:11:55;;;;;;;8.15;4.75;;;;;;;4.73;100.00;101034.97;6246820;23;20382;-88
2023/12/18 01:14:27;;;;;;;9.60;4.97;;;;;;;4.74;100.00;101039.31;6247231;23;20020;-84
2023/12/18 01:16:56;;;;;;;9.35;5.18;;;;;;;4.76;100.00;101031.69;6245650;23;20339;-84
2023/12/18 01:19:34;;;;;;;8.73;5.68;;;;;;;4.74;100.00;101061.47;6243758;23;20103;-86
2023/12/18 01:22:03;;;;;;;8.65;4.35;;;;;;;4.70;100.00;101059.56;6244703;23;20091;-85
2023/12/18 01:24:33;;;;;;;9.23;5.40;;;;;;;4.73;100.00;101032.41;6245991;23;20020;-85
2023/12/18 01:27:04;;;;;;;9.20;5.25;;;;;;;4.66;100.00;101055.91;6250089;23;20087;-86
2023/12/18 01:29:41;;;;;;;7.47;4.75;;;;;;;4.66;100.00;101076.41;6248114;23;20016;-82
2023/12/18 01:32:11;;;;;;;9.65;5.18;;;;;;;4.68;100.00;101044.06;6242081;23;20025;-87
2023/12/18 02:01:20;;;;;;;9.48;5.47;;;;;;;4.46;100.00;101010.31;6281985;22;20083;-87
2023/12/18 02:03:55;;;;;;;12.00;5.47;;;;;;;4.53;100.00;100966.28;6284081;22;20069;-87
2023/12/18 02:06:25;;;;;;;8.32;4.53;;;;;;;4.53;100.00;100990.25;6287354;22;20023;-83
2023/12/18 02:14:05;;;;;;;13.57;4.95;;;;;;;4.56;100.00;100679.50;6231254;22;20027;-89
2023/12/18 02:16:52;;;;;;;7.15;3.33;;;;;;;4.62;100.00;100659.28;6222849;23;20079;-86
2023/12/18 02:19:26;;;;;;;4.20;2.00;;;;;;;4.75;100.00;100723.19;6214893;23;20020;-87
2023/12/18 02:24:52;;;;;;;4.18;2.17;;;;;;;4.99;100.00;100874.00;6231491;23;20025;-87
2023/12/18 02:27:27;;;;;;;4.93;2.50;;;;;;;5.08;100.00;100812.06;6208733;23;20025;-87
2023/12/18 02:30:07;;;;;;;8.75;2.35;;;;;;;5.05;100.00;100912.81;6222894;23;20020;-88
2023/12/18 02:32:44;;;;;;;4.72;2.20;;;;;;;5.16;100.00;100919.41;6218531;23;20463;-87
2023/12/18 02:35:29;;;;;;;3.10;1.63;;;;;;;5.28;100.00;100957.66;6226657;23;20020;-89
2023/12/18 02:38:06;;;;;;;2.85;1.67;;;;;;;5.41;100.00;100946.38;6224578;23;20024;-91
2023/12/18 02:40:39;;;;;;;5.93;2.75;;;;;;;5.48;100.00;100924.50;6228359;23;20039;-87
2023/12/18 03:56:42;;;;;;;5.38;3.45;;;;;;;5.05;100.00;100861.50;6262745;22;20032;-89
2023/12/18 03:59:11;;;;;;;7.43;3.78;;;;;;;5.13;100.00;100880.75;6291970;22;20000;-88
2023/12/18 04:01:40;;;;;;;9.23;3.85;;;;;;;5.24;100.00;100871.97;6276301;22;20020;-90
2023/12/18 04:04:18;;;;;;;8.40;4.07;;;;;;;5.25;100.00;100860.88;6281664;22;20027;-89
2023/12/18 04:06:56;;;;;;;8.88;4.63;;;;;;;5.34;100.00;100873.31;6289592;22;20020;-90
2023/12/18 05:31:09;;;;;;;6.88;3.83;;;;;;;4.63;100.00;100799.44;6261437;22;20628;-88
2023/12/18 05:33:38;;;;;;;9.20;4.30;;;;;;;4.60;100.00;100820.69;6277068;22;20015;-88
2023/12/18 05:36:08;;;;;;;7.40;3.53;;;;;;;4.58;100.00;100831.63;6280295;22;20019;-87
2023/12/18 05:38:44;;;;;;;6.75;3.60;;;;;;;4.57;100.00;100837.56;6278028;22;20019;-88
2023/12/18 05:41:13;;;;;;;7.18;3.95;;;;;;;4.48;100.00;100834.47;6277752;22;20090;-88
2023/12/18 05:43:42;;;;;;;9.45;4.10;;;;;;;4.43;100.00;100846.16;6283310;22;20015;-89
2023/12/18 05:48:57;;;;;;;7.93;4.30;;;;;;;4.24;100.00;100855.38;6287600;22;20023;-89
2023/12/18 05:51:26;;;;;;;10.60;4.22;;;;;;;4.20;100.00;100854.31;6289090;22;20078;-87
2023/12/18 05:56:37;;;;;;;7.33;3.63;;;;;;;4.24;100.00;100849.34;6280981;22;20019;-89
2023/12/18 05:59:06;;;;;;;10.80;3.72;;;;;;;4.25;100.00;100838.31;6279783;22;20016;-89
2023/12/18 06:01:43;;;;;;;5.63;3.45;;;;;;;4.29;100.00;100843.72;6280992;22;20057;-89
2023/12/18 06:04:16;;;;;;;7.78;3.42;;;;;;;4.29;100.00;100833.47;6280694;22;20019;-90
2023/12/18 06:06:48;;;;;;;5.25;3.20;;;;;;;4.32;100.00;100813.13;6292113;22;20019;-90
2023/12/18 06:09:35;;;;;;;5.60;3.97;;;;;;;4.31;100.00;100831.88;6283745;22;20015;-89
2023/12/18 06:12:05;;;;;;;9.45;4.05;;;;;;;4.22;100.00;100826.25;6275995;22;20015;-89
2023/12/18 06:14:44;;;;;;;8.15;4.18;;;;;;;4.28;100.00;100841.06;6278605;22;20459;-88
2023/12/18 06:17:15;;;;;;;5.97;3.70;;;;;;;4.30;100.00;100830.09;6277327;22;20016;-89
2023/12/18 06:19:44;;;;;;;7.30;3.45;;;;;;;4.33;100.00;100830.28;6282518;22;20020;-89
2023/12/18 06:22:23;;;;;;;;;;;;;;;;;;;;;
2023/12/18 06:24:53;;;;;;;8.02;4.47;;;;;;;4.48;100.00;100814.00;6287395;22;20016;-89
2023/12/18 06:27:22;;;;;;;8.32;5.45;;;;;;;4.46;100.00;100798.53;6288056;22;20007;-89
2023/12/18 06:29:51;;;;;;;8.07;4.18;;;;;;;4.44;100.00;100796.69;6282303;22;20020;-89
2023/12/18 06:32:28;;;;;;;8.30;4.38;;;;;;;4.47;100.00;100802.00;6284606;22;20022;-89
2023/12/18 06:34:58;;;;;;;7.65;4.97;;;;;;;4.45;100.00;100793.34;6289930;22;20027;-89
2023/12/18 06:37:27;;;;;;;6.78;4.03;;;;;;;4.46;100.00;100772.03;6288933;22;20020;-89
2023/12/18 06:40:08;;;;;;;;;;;;;;;;;;;;;
2023/12/18 06:42:38;;;;;;;8.65;4.40;;;;;;;4.47;100.00;100781.50;6283543;22;20019;-88
2023/12/18 06:45:10;;;;;;;;;;;;;;;4.50;100.00;100802.16;6280874;22;20046;-90
2023/12/18 06:47:49;;;;;;;6.72;3.92;;;;;;;4.40;100.00;100781.16;6283709;22;19923;-89
2023/12/18 06:50:18;;;;;;;7.50;4.13;;;;;;;4.44;100.00;100787.31;6291970;22;20027;-90
2023/12/18 06:52:48;;;;;;;8.10;3.85;;;;;;;4.29;100.00;100786.47;6293047;22;20047;-89
2023/12/18 06:55:27;;;;;;;;;;;;;;;;;;;;;
2023/12/18 06:57:56;;;;;;;7.68;3.80;;;;;;;4.34;100.00;100806.41;6291383;22;20443;-91
2023/12/18 07:08:14;;;;;;;9.75;4.63;;;;;;;4.28;100.00;100754.84;6290068;22;20024;-90
2023/12/18 07:10:56;;;;;;;9.35;4.45;;;;;;;4.32;100.00;100726.03;6291556;22;20046;-90
2023/12/18 07:13:25;;;;;;;10.70;4.72;;;;;;;4.27;100.00;100722.34;6288160;22;20033;-90
2023/12/18 07:16:07;;;;;;;9.13;4.38;;;;;;;4.27;100.00;100707.00;6281238;22;20038;-92
2023/12/18 07:26:21;;;;;;;10.18;4.82;;;;;;;4.44;100.00;100689.06;6269731;22;20032;-88
2023/12/18 07:28:53;;;;;;;11.77;5.68;;;;;;;4.47;100.00;100702.06;6258474;23;20052;-88
2023/12/18 07:31:36;;;;;;;8.77;4.47;;;;;;;4.37;100.00;100714.34;6258705;23;20043;-90
2023/12/18 07:34:06;;;;;;;6.57;3.78;;;;;;;4.34;100.00;100710.75;6266443;22;20249;-88
2023/12/18 07:36:39;;;;;;;7.43;4.45;;;;;;;4.24;100.00;100732.44;6255998;23;20127;-88
2023/12/18 07:39:12;;;;;;;;;;;;;;;4.19;100.00;100733.84;6254814;23;20052;-89
2023/12/18 07:41:43;;;;;;;6.30;3.63;;;;;;;4.15;100.00;100739.63;6255158;23;20006;-88
2023/12/18 07:44:16;;;;;;;7.63;3.92;;;;;;;4.12;100.00;100736.88;6277020;22;20016;-89
2023/12/18 07:46:53;;;;;;;7.15;3.60;;;;;;;4.18;100.00;100752.59;6277961;22;20027;-89
2023/12/18 07:49:22;;;;;;;8.15;3.80;;;;;;;4.22;100.00;100744.28;6276364;22;20019;-89
2023/12/18 08:22:58;;;;;;;10.50;4.07;;;;;;;4.58;100.00;100662.47;6272856;22;20023;-89
2023/12/18 08:25:28;;;;;;;9.25;3.88;;;;;;;4.52;100.00;100682.69;6253494;23;20023;-90
2023/12/18 08:27:58;;;;;;;8.32;4.38;;;;;;;4.43;100.00;100684.75;6266651;22;20006;-90
2023/12/18 08:30:33;;;;;;;6.55;3.67;;;;;;;4.31;100.00;100692.69;6260522;23;20078;-89
2023/12/18 08:33:05;;;;;;;6.93;3.53;;;;;;;4.31;100.00;100697.81;6260536;23;20340;-88
2023/12/18 08:35:35;;;;;;;6.37;3.20;;;;;;;4.32;100.00;100684.19;6260033;23;20020;-90
2023/12/18 08:38:16;;;;;;;6.53;3.70;;;;;;;4.36;100.00;100675.88;6283464;22;20043;-89
2023/12/18 08:40:45;;;;;;;12.40;3.28;;;;;;;4.36;100.00;100666.50;6282114;22;20020;-88
2023/12/18 08:43:14;;;;;;;8.13;4.05;;;;;;;4.38;100.00;100659.78;6291272;22;20016;-89
2023/12/18 08:48:26;;;;;;;10.25;4.28;;;;;;;4.45;100.00;100648.16;6289883;22;20023;-89
2023/12/18 08:50:55;;;;;;;6.90;3.47;;;;;;;4.48;100.00;100644.88;6294671;22;20020;-91
2023/12/18 08:53:41;;;;;;;5.13;3.28;;;;;;;4.49;100.00;100626.13;6296189;22;20027;-90
2023/12/18 09:06:34;;;;;;;5.68;3.15;;;;;;;4.63;100.00;100612.38;6260370;22;20024;-90
2023/12/18 09:09:06;;;;;;;7.38;3.08;;;;;;;4.68;100.00;100620.28;6249605;23;20455;-87
2023/12/18 09:11:35;;;;;;;10.02;4.35;;;;;;;4.67;100.00;100639.88;6250326;22;20028;-90
2023/12/18 09:14:14;;;;;;;5.18;3.13;;;;;;;4.65;100.00;100638.06;6249612;22;20019;-89
2023/12/18 09:16:47;;;;;;;6.80;3.15;;;;;;;4.75;100.00;100641.19;6251309;22;20024;-91
2023/12/18 09:19:16;;;;;;;7.32;3.90;;;;;;;4.78;100.00;100641.31;6249133;22;20039;-90
2023/12/18 09:22:00;;;;;;;5.05;2.72;;;;;;;4.81;100.00;100640.59;6248536;22;20359;-91
2023/12/18 10:03:19;;;;;;;8.10;2.70;;;;;;;5.09;100.00;100604.41;6249033;22;20098;-87
2023/12/18 10:05:48;;;;;;;5.43;2.72;;;;;;;5.08;100.00;100596.63;6247895;23;20020;-87
2023/12/18 10:08:17;;;;;;;6.20;2.47;;;;;;;5.11;100.00;100595.09;6249803;23;20521;-89
2023/12/18 10:10:54;;;;;;;7.10;2.97;;;;;;;5.17;100.00;100603.06;6248755;23;20020;-88
2023/12/18 10:13:23;;;;;;;4.13;2.65;;;;;;;5.21;100.00;100596.44;6276098;22;20295;-89
2023/12/18 10:15:55;;;;;;;6.57;2.92;;;;;;;5.23;100.00;100594.81;6278842;22;20027;-89
2023/12/18 10:33:55;;;;;;;6.95;3.00;;;;;;;5.22;100.00;100614.47;6247073;23;20123;-89
2023/12/18 10:36:26;;;;;;;4.28;2.38;;;;;;;5.23;100.00;100616.22;6245091;22;20067;-89
2023/12/18 10:39:10;;;;;;;5.72;2.55;;;;;;;5.23;100.00;100623.91;6247624;23;20031;-88
2023/12/18 10:41:42;;;;;;;5.25;2.88;;;;;;;5.24;100.00;100617.09;6251200;23;20024;-89
2023/12/18 10:54:40;;;;;;;6.90;2.72;;;;;;;5.27;100.00;100613.78;6262408;22;20028;-90
2023/12/18 11:02:28;;;;;;;6.20;3.58;;;;;;;5.13;100.00;100603.75;6275556;22;20413;-89
2023/12/18 11:04:57;;;;;;;6.97;3.80;;;;;;;5.08;100.00;100597.50;6275611;22;20443;-89
2023/12/18 11:07:33;;;;;;;5.95;3.60;;;;;;;5.05;100.00;100597.38;6277633;22;20022;-88
2023/12/18 11:10:08;;;;;;;6.10;3.42;;;;;;;5.10;100.00;100587.34;6278230;22;20423;-88
2023/12/18 11:12:41;;;;;;;7.15;3.88;;;;;;;5.18;100.00;100570.63;6277386;22;20016;-88
2023/12/18 11:15:24;;;;;;;5.47;3.05;;;;;;;5.18;100.00;100576.66;6276973;22;20019;-89
2023/12/18 11:18:01;;;;;;;6.38;3.13;;;;;;;5.19;100.00;100573.25;6277002;22;20035;-88
2023/12/18 11:20:42;;;;;;;7.90;3.45;;;;;;;5.31;100.00;100582.34;6277035;22;20023;-89
2023/12/18 11:23:13;;;;;;;5.07;3.22;;;;;;;5.36;100.00;100557.78;6277531;22;20031;-89
2023/12/18 12:13:48;;;;;;;8.15;3.55;;;;;;;5.54;100.00;100535.53;6278652;22;20047;-89
2023/12/18 12:16:19;;;;;;;7.50;3.47;;;;;;;5.52;100.00;100552.59;6278237;22;20406;-89
2023/12/18 12:18:50;;;;;;;5.15;2.95;;;;;;;5.48;100.00;100525.03;6277611;22;20019;-89
2023/12/18 12:42:09;;;;;;;5.97;3.20;;;;;;;5.49;100.00;100485.69;6281186;22;20047;-89
2023/12/18 12:44:39;;;;;;;8.20;3.70;;;;;;;5.49;100.00;100482.25;6278505;22;20023;-88
2023/12/18 12:47:13;;;;;;;;;;;;;;;5.48;100.00;100481.41;6277812;22;20070;-88
2023/12/18 12:49:48;;;;;;;7.65;3.55;;;;;;;5.49;100.00;100469.44;6278401;22;19998;-88
2023/12/18 12:52:18;;;;;;;6.85;3.65;;;;;;;5.49;100.00;100454.91;6278944;22;20102;-88
2023/12/18 12:54:47;;;;;;;6.68;3.70;;;;;;;5.46;100.00;100455.66;6276646;22;20034;-88
2023/12/18 12:57:30;;;;;;;6.68;3.60;;;;;;;5.45;100.00;100453.00;6278789;22;20050;-88
2023/12/18 12:59:59;;;;;;;9.02;3.90;;;;;;;5.43;100.00;100460.66;6279721;22;20046;-88
2023/12/18 13:02:29;;;;;;;7.40;3.58;;;;;;;5.45;100.00;100448.78;6278881;22;20023;-88
2023/12/18 13:05:09;;;;;;;8.98;3.97;;;;;;;5.52;100.00;100434.53;6278466;22;20019;-91
2023/12/18 13:07:39;;;;;;;8.27;3.97;;;;;;;5.50;100.00;100436.16;6277966;22;20467;-89
2023/12/18 13:10:10;;;;;;;10.65;4.20;;;;;;;5.52;100.00;100415.66;6278051;22;20024;-89
2023/12/18 13:12:56;;;;;;;7.05;4.03;;;;;;;5.55;100.00;100414.13;6278632;22;20039;-88
2023/12/18 14:01:51;;;;;;;4.75;2.28;;;;;;;6.08;100.00;100358.22;6271497;22;20024;-89
2023/12/18 14:04:24;;;;;;;4.43;2.78;;;;;;;6.10;100.00;100359.16;6275736;22;20080;-88
2023/12/18 14:06:55;;;;;;;;;;;;;;;6.17;100.00;100366.28;6278968;22;20054;-88
2023/12/18 14:09:28;;;;;;;5.22;2.50;;;;;;;6.22;100.00;100364.78;6276803;22;20001;-88
2023/12/18 14:12:00;;;;;;;5.68;2.67;;;;;;;6.23;100.00;100365.66;6276895;22;20015;-88
2023/12/18 14:14:29;;;;;;;4.45;2.50;;;;;;;6.25;100.00;100370.06;6280538;22;20011;-90
2023/12/18 14:17:06;;;;;;;4.82;2.78;;;;;;;6.26;100.00;100383.78;6278725;22;20090;-88
2023/12/18 16:47:40;;;;;;;4.93;1.80;;;;;;;6.79;100.00;100098.72;6255258;22;20024;-90
2023/12/18 16:50:12;;;;;;;5.13;1.77;;;;;;;6.87;99.43;100089.56;6250491;23;20042;-90
2023/12/18 16:52:43;;;;;;;4.85;2.03;;;;;;;7.01;100.00;100102.88;6249269;23;20020;-91
2023/12/18 16:55:22;;;;;;;5.22;2.17;;;;;;;7.09;98.67;100091.16;6247247;22;20017;-89
2023/12/18 16:57:51;;;;;;;6.55;2.10;;;;;;;7.14;98.54;100099.91;6247462;23;20026;-90
2023/12/18 17:00:21;;;;;;;3.10;1.70;;;;;;;7.22;98.52;100111.31;6249830;22;20012;-88
2023/12/18 17:03:00;;;;;;;6.18;2.17;;;;;;;7.29;97.32;100115.84;6249730;23;20027;-90
2023/12/18 17:05:32;;;;;;;7.97;2.05;;;;;;;7.36;96.41;100105.75;6250665;23;20072;-91
2023/12/18 17:08:01;;;;;;;;;;;;;;;7.38;95.06;100093.81;6247680;23;20363;-90
2023/12/18 17:10:32;;;;;;;3.85;2.22;;;;;;;7.39;96.07;100101.56;6249254;22;19922;-90
2023/12/18 17:13:05;;;;;;;3.87;1.83;;;;;;;7.42;96.83;100114.56;6247363;23;20331;-91
2023/12/18 17:15:38;;;;;;;2.53;1.30;;;;;;;7.45;96.71;100111.19;6248659;23;20016;-89
2023/12/18 17:18:14;;;;;;;2.95;1.50;;;;;;;7.49;97.06;100133.59;6249428;22;20024;-88
2023/12/18 17:20:48;;;;;;;4.00;1.95;;;;;;;7.50;97.64;100143.09;6252863;23;20015;-89
2023/12/18 18:39:18;;;;;;;3.67;2.13;;;;;;;9.86;82.25;100084.97;6273607;22;20023;-90
2023/12/18 18:41:47;;;;;;;3.13;1.60;;;;;;;9.92;81.59;100083.34;6280037;22;20020;-92
2023/12/18 18:44:20;;;;;;;3.40;1.70;;;;;;;10.09;81.60;100082.00;6278160;22;20031;-90
2023/12/18 18:46:57;;;;;;;4.95;1.90;;;;;;;10.22;75.38;100070.19;6278826;22;20019;-88
2023/12/18 18:49:29;;;;;;;2.90;1.80;;;;;;;10.34;74.92;100052.34;6276877;22;20451;-89
2023/12/18 18:51:58;;;;;;;4.30;1.92;;;;;;;10.42;71.90;100043.03;6278870;22;20026;-90
2023/12/18 21:00:38;;;;;;;4.63;2.83;;;;;;;10.56;68.92;99857.03;6300633;22;20026;-89
2023/12/18 21:05:49;;;;;;;4.70;1.85;;;;;;;10.43;67.62;99829.25;6284866;22;19915;-91
2023/12/18 21:08:21;;;;;;;3.25;1.40;;;;;;;10.42;66.24;99843.00;6289427;22;20012;-91
2023/12/18 21:11:02;;;;;;;3.03;1.48;;;;;;;10.26;67.55;99836.69;6294371;22;20020;-92
2023/12/18 22:49:44;;;;;;;13.10;5.40;;;;;;;10.50;82.38;99787.13;6294772;22;20027;-90
2023/12/18 22:52:14;;;;;;;11.98;5.20;;;;;;;10.53;82.09;99774.22;6291897;22;20020;-90
2023/12/18 22:57:25;;;;;;;8.50;4.00;;;;;;;10.56;79.86;99774.28;6294225;22;20047;-90
2023/12/18 22:59:54;;;;;;;5.93;3.40;;;;;;;10.48;79.09;99770.69;6289605;22;20025;-91
2023/12/18 23:02:35;;;;;;;6.47;3.00;;;;;;;10.45;79.08;99766.34;6290251;22;20016;-90
2023/12/18 23:05:04;;;;;;;7.13;3.92;;;;;;;10.45;80.35;99775.84;6291914;22;20066;-88
2023/12/18 23:07:33;;;;;;;8.63;3.88;;;;;;;10.44;79.36;99771.50;6291524;22;20017;-89
2023/12/18 23:10:02;;;;;;;10.90;3.92;;;;;;;10.41;80.16;99779.22;6286538;22;20019;-90
2023/12/18 23:12:39;;;;;;;8.13;4.25;;;;;;;10.40;80.35;99783.53;6294853;22;20028;-89
2023/12/18 23:15:10;;;;;;;8.60;4.00;;;;;;;10.35;81.18;99785.16;6294405;22;20024;-89
2023/12/18 23:17:41;;;;;;;7.63;4.18;;;;;;;10.38;81.40;99784.38;6286941;22;20020;-89
2023/12/18 23:20:21;;;;;;;6.93;3.30;;;;;;;10.35;82.63;99773.94;6290902;22;20020;-89
2023/12/18 23:22:50;;;;;;;7.95;3.67;;;;;;;10.40;82.37;99780.94;6291894;22;20019;-89
2023/12/18 23:25:19;;;;;;;5.03;3.30;;;;;;;10.42;82.75;99791.28;6295676;22;20185;-92
2023/12/18 23:27:51;;;;;;;6.63;3.28;;;;;;;10.39;83.74;99786.94;6296939;22;20020;-90
2023/12/18 23:30:20;;;;;;;5.97;3.42;;;;;;;10.38;83.71;99784.38;6292443;22;20026;-91
2023/12/18 23:32:51;;;;;;;8.27;3.88;;;;;;;10.36;84.22;99781.75;6293822;22;20045;-90
2023/12/18 23:35:19;;;;;;;6.90;3.65;;;;;;;10.41;85.61;99784.41;6289202;22;20026;-91
2023/12/18 23:37:58;;;;;;;;;;;;;;;;;;;;;
2023/12/18 23:40:28;;;;;;;5.85;2.75;;;;;;;10.35;85.32;99768.78;6286074;22;20028;-91
2023/12/18 23:42:57;;;;;;;6.18;2.85;;;;;;;10.35;83.72;99761.88;6286000;22;20027;-90
2023/12/18 23:45:26;;;;;;;8.02;3.50;;;;;;;10.26;86.36;99759.13;6291144;22;20018;-90
2023/12/18 23:48:06;;;;;;;9.30;3.53;;;;;;;10.21;89.21;99756.47;6291735;22;20019;-89
2023/12/18 23:50:38;;;;;;;7.47;3.45;;;;;;;10.15;90.79;99745.22;6290780;22;20039;-90
